sensor_id;sensor_type;location;lat;lon;timestamp;pressure;altitude;pressure_sealevel;temperature;humidity
14767;BME280;7475;53.558;9.970;2023-05-23T00:01:24;101287.94;;;17.24;100.00
14767;BME280;7475;53.558;9.970;2023-05-23T00:03:50;101287.94;;;17.24;100.00
14767;BME280;7475;53.558;9.970;2023-05-23T00:06:19;101280.59;;;17.26;100.00
14767;BME280;7475;53.558;9.970;2023-05-23T00:08:47;101272.56;;;17.26;100.00
14767;BME280;7475;53.558;9.970;2023-05-23T00:11:13;101267.91;;;17.28;100.00
14767;BME280;7475;53.558;9.970;2023-05-23T00:13:38;101272.28;;;17.29;100.00
14767;BME280;7475;53.558;9.970;2023-05-23T00:16:05;101265.09;;;17.30;100.00
14767;BME280;7475;53.558;9.970;2023-05-23T00:18:36;101263.97;;;17.33;100.00
14767;BME280;7475;53.558;9.970;2023-05-23T00:21:02;101261.28;;;17.33;100.00
14767;BME280;7475;53.558;9.970;2023-05-23T00:23:28;101269.34;;;17.33;100.00
14767;BME280;7475;53.558;9.970;2023-05-23T00:25:54;101271.06;;;17.34;100.00
14767;BME280;7475;53.558;9.970;2023-05-23T00:28:20;101261.28;;;17.33;100.00
14767;BME280;7475;53.558;9.970;2023-05-23T00:30:46;101253.63;;;17.28;100.00
14767;BME280;7475;53.558;9.970;2023-05-23T00:33:13;101256.56;;;17.25;100.00
14767;BME280;7475;53.558;9.970;2023-05-23T00:35:42;101259.38;;;17.23;100.00
14767;BME280;7475;53.558;9.970;2023-05-23T00:38:07;101257.72;;;17.22;100.00
14767;BME280;7475;53.558;9.970;2023-05-23T00:40:33;101258.94;;;17.18;100.00
14767;BME280;7475;53.558;9.970;2023-05-23T00:42:59;101255.66;;;17.15;100.00
14767;BME280;7475;53.558;9.970;2023-05-23T00:45:26;101248.97;;;17.09;100.00
14767;BME280;7475;53.558;9.970;2023-05-23T00:47:51;101244.88;;;17.05;100.00
14767;BME280;7475;53.558;9.970;2023-05-23T00:50:17;101235.09;;;17.04;100.00
14767;BME280;7475;53.558;9.970;2023-05-23T00:52:44;101241.44;;;17.03;100.00
14767;BME280;7475;53.558;9.970;2023-05-23T00:55:11;101241.44;;;17.03;100.00
14767;BME280;7475;53.558;9.970;2023-05-23T00:57:37;101235.09;;;17.04;100.00
14767;BME280;7475;53.558;9.970;2023-05-23T01:00:06;101235.22;;;17.02;100.00
14767;BME280;7475;53.558;9.970;2023-05-23T01:02:33;101239.50;;;17.05;100.00
14767;BME280;7475;53.558;9.970;2023-05-23T01:05:00;101234.13;;;17.05;100.00
14767;BME280;7475;53.558;9.970;2023-05-23T01:07:26;101234.13;;;17.05;100.00
14767;BME280;7475;53.558;9.970;2023-05-23T01:09:51;101238.50;;;17.06;100.00
14767;BME280;7475;53.558;9.970;2023-05-23T01:12:28;101228.50;;;17.08;100.00
14767;BME280;7475;53.558;9.970;2023-05-23T01:15:08;101230.19;;;17.09;100.00
14767;BME280;7475;53.558;9.970;2023-05-23T01:17:45;101224.81;;;17.09;100.00
14767;BME280;7475;53.558;9.970;2023-05-23T01:20:24;101223.84;;;17.10;100.00
14767;BME280;7475;53.558;9.970;2023-05-23T01:25:47;101222.34;;;17.17;100.00
14767;BME280;7475;53.558;9.970;2023-05-23T01:28:16;101219.38;;;17.20;100.00
14767;BME280;7475;53.558;9.970;2023-05-23T01:30:44;101213.06;;;17.21;100.00
14767;BME280;7475;53.558;9.970;2023-05-23T01:33:12;101218.41;;;17.21;100.00
14767;BME280;7475;53.558;9.970;2023-05-23T01:35:38;101224.88;;;17.19;100.00
14767;BME280;7475;53.558;9.970;2023-05-23T01:38:04;101224.03;;;17.18;100.00
14767;BME280;7475;53.558;9.970;2023-05-23T01:40:29;101218.69;;;17.18;100.00
14767;BME280;7475;53.558;9.970;2023-05-23T01:42:55;101222.06;;;17.20;100.00
14767;BME280;7475;53.558;9.970;2023-05-23T01:45:25;101220.13;;;17.22;100.00
14767;BME280;7475;53.558;9.970;2023-05-23T01:47:52;101243.53;;;17.20;100.00
14767;BME280;7475;53.558;9.970;2023-05-23T01:50:18;101241.13;;;17.17;100.00
14767;BME280;7475;53.558;9.970;2023-05-23T01:52:45;101236.31;;;17.00;100.00
14767;BME280;7475;53.558;9.970;2023-05-23T01:55:13;101228.34;;;16.88;100.00
14767;BME280;7475;53.558;9.970;2023-05-23T01:57:40;101238.69;;;16.82;100.00
14767;BME280;7475;53.558;9.970;2023-05-23T02:00:06;101239.75;;;16.69;100.00
14767;BME280;7475;53.558;9.970;2023-05-23T02:02:35;101236.22;;;16.57;100.00
14767;BME280;7475;53.558;9.970;2023-05-23T02:05:00;101235.66;;;16.43;100.00
14767;BME280;7475;53.558;9.970;2023-05-23T02:07:26;101234.31;;;16.37;100.00
14767;BME280;7475;53.558;9.970;2023-05-23T02:09:51;101235.09;;;16.28;100.00
14767;BME280;7475;53.558;9.970;2023-05-23T02:12:16;101231.66;;;16.26;100.00
14767;BME280;7475;53.558;9.970;2023-05-23T02:14:42;101238.41;;;16.20;100.00
14767;BME280;7475;53.558;9.970;2023-05-23T02:17:07;101241.69;;;16.12;100.00
14767;BME280;7475;53.558;9.970;2023-05-23T02:19:36;101244.75;;;16.08;100.00
14767;BME280;7475;53.558;9.970;2023-05-23T02:22:01;101239.50;;;16.06;100.00
14767;BME280;7475;53.558;9.970;2023-05-23T02:24:27;101237.06;;;16.03;100.00
14767;BME280;7475;53.558;9.970;2023-05-23T02:26:52;101241.72;;;16.01;100.00
14767;BME280;7475;53.558;9.970;2023-05-23T02:29:18;101240.34;;;15.95;100.00
14767;BME280;7475;53.558;9.970;2023-05-23T02:31:43;101251.47;;;15.91;100.00
14767;BME280;7475;53.558;9.970;2023-05-23T02:34:09;101254.38;;;15.88;100.00
14767;BME280;7475;53.558;9.970;2023-05-23T02:36:34;101250.00;;;15.87;100.00
14767;BME280;7475;53.558;9.970;2023-05-23T02:39:04;101260.47;;;15.78;100.00
14767;BME280;7475;53.558;9.970;2023-05-23T02:41:30;101253.59;;;15.74;100.00
14767;BME280;7475;53.558;9.970;2023-05-23T02:43:56;101260.06;;;15.72;100.00
14767;BME280;7475;53.558;9.970;2023-05-23T02:46:21;101247.03;;;15.67;100.00
14767;BME280;7475;53.558;9.970;2023-05-23T02:48:47;101250.91;;;15.63;100.00
14767;BME280;7475;53.558;9.970;2023-05-23T02:51:12;101247.50;;;15.61;100.00
14767;BME280;7475;53.558;9.970;2023-05-23T02:53:38;101246.78;;;15.59;100.00
14767;BME280;7475;53.558;9.970;2023-05-23T02:56:03;101255.66;;;15.59;100.00
14767;BME280;7475;53.558;9.970;2023-05-23T02:58:28;101246.91;;;15.57;100.00
14767;BME280;7475;53.558;9.970;2023-05-23T03:00:54;101248.69;;;15.57;100.00
14767;BME280;7475;53.558;9.970;2023-05-23T03:03:19;101246.91;;;15.57;100.00
14767;BME280;7475;53.558;9.970;2023-05-23T03:05:45;101247.97;;;15.55;100.00
14767;BME280;7475;53.558;9.970;2023-05-23T03:08:10;101251.63;;;15.54;100.00
14767;BME280;7475;53.558;9.970;2023-05-23T03:10:36;101253.34;;;15.55;100.00
14767;BME280;7475;53.558;9.970;2023-05-23T03:13:01;101257.47;;;15.47;100.00
14767;BME280;7475;53.558;9.970;2023-05-23T03:15:27;101248.44;;;15.48;100.00
14767;BME280;7475;53.558;9.970;2023-05-23T03:17:52;101255.75;;;15.46;100.00
14767;BME280;7475;53.558;9.970;2023-05-23T03:20:17;101247.84;;;15.45;100.00
14767;BME280;7475;53.558;9.970;2023-05-23T03:22:43;101241.66;;;15.44;100.00
14767;BME280;7475;53.558;9.970;2023-05-23T03:25:09;101248.69;;;15.45;100.00
14767;BME280;7475;53.558;9.970;2023-05-23T03:27:35;101243.34;;;15.45;100.00
14767;BME280;7475;53.558;9.970;2023-05-23T03:30:02;101249.56;;;15.46;100.00
14767;BME280;7475;53.558;9.970;2023-05-23T03:32:27;101243.56;;;15.42;100.00
14767;BME280;7475;53.558;9.970;2023-05-23T03:34:52;101249.19;;;15.39;100.00
14767;BME280;7475;53.558;9.970;2023-05-23T03:37:18;101254.53;;;15.39;100.00
14767;BME280;7475;53.558;9.970;2023-05-23T03:39:43;101257.22;;;15.39;100.00
14767;BME280;7475;53.558;9.970;2023-05-23T03:42:08;101250.88;;;15.40;100.00
14767;BME280;7475;53.558;9.970;2023-05-23T03:44:33;101250.16;;;15.38;100.00
14767;BME280;7475;53.558;9.970;2023-05-23T03:46:59;101245.75;;;15.37;100.00
14767;BME280;7475;53.558;9.970;2023-05-23T03:49:24;101254.78;;;15.36;100.00
14767;BME280;7475;53.558;9.970;2023-05-23T03:51:50;101241.50;;;15.35;100.00
14767;BME280;7475;53.558;9.970;2023-05-23T03:54:15;101247.72;;;15.35;100.00
14767;BME280;7475;53.558;9.970;2023-05-23T03:56:42;101240.63;;;15.34;100.00
14767;BME280;7475;53.558;9.970;2023-05-23T03:59:07;101234.81;;;15.40;100.00
14767;BME280;7475;53.558;9.970;2023-05-23T04:01:32;101249.19;;;15.39;100.00
14767;BME280;7475;53.558;9.970;2023-05-23T04:03:58;101246.75;;;15.36;100.00
14767;BME280;7475;53.558;9.970;2023-05-23T04:06:24;101237.13;;;15.34;100.00
14767;BME280;7475;53.558;9.970;2023-05-23T04:08:50;101246.22;;;15.31;100.00
14767;BME280;7475;53.558;9.970;2023-05-23T04:11:15;101249.91;;;15.30;100.00
14767;BME280;7475;53.558;9.970;2023-05-23T04:13:41;101251.81;;;15.28;100.00
14767;BME280;7475;53.558;9.970;2023-05-23T04:16:06;101253.53;;;15.29;100.00
14767;BME280;7475;53.558;9.970;2023-05-23T04:18:32;101251.09;;;15.26;100.00
14767;BME280;7475;53.558;9.970;2023-05-23T04:20:58;101259.13;;;15.26;100.00
14767;BME280;7475;53.558;9.970;2023-05-23T04:23:23;101255.72;;;15.24;100.00
14767;BME280;7475;53.558;9.970;2023-05-23T04:25:49;101263.84;;;15.22;100.00
14767;BME280;7475;53.558;9.970;2023-05-23T04:28:15;101265.81;;;15.20;100.00
14767;BME280;7475;53.558;9.970;2023-05-23T04:30:42;101269.06;;;15.13;100.00
14767;BME280;7475;53.558;9.970;2023-05-23T04:33:07;101262.00;;;15.11;100.00
14767;BME280;7475;53.558;9.970;2023-05-23T04:35:34;101262.09;;;15.10;100.00
14767;BME280;7475;53.558;9.970;2023-05-23T04:38:03;101259.03;;;15.03;100.00
14767;BME280;7475;53.558;9.970;2023-05-23T04:40:28;101262.94;;;14.99;100.00
14767;BME280;7475;53.558;9.970;2023-05-23T04:42:54;101270.69;;;15.02;100.00
14767;BME280;7475;53.558;9.970;2023-05-23T04:45:21;101276.81;;;15.04;100.00
14767;BME280;7475;53.558;9.970;2023-05-23T04:47:46;101270.59;;;15.04;100.00
14767;BME280;7475;53.558;9.970;2023-05-23T04:50:11;101267.06;;;15.03;100.00
14767;BME280;7475;53.558;9.970;2023-05-23T04:52:39;101267.06;;;15.03;100.00
14767;BME280;7475;53.558;9.970;2023-05-23T04:55:05;101269.50;;;15.06;100.00
14767;BME280;7475;53.558;9.970;2023-05-23T04:57:31;101267.78;;;15.05;100.00
14767;BME280;7475;53.558;9.970;2023-05-23T04:59:56;101274.88;;;15.06;100.00
14767;BME280;7475;53.558;9.970;2023-05-23T05:02:21;101278.25;;;15.08;100.00
14767;BME280;7475;53.558;9.970;2023-05-23T05:04:47;101276.34;;;15.10;100.00
14767;BME280;7475;53.558;9.970;2023-05-23T05:07:12;101278.03;;;15.11;100.00
14767;BME280;7475;53.558;9.970;2023-05-23T05:09:37;101283.16;;;15.15;100.00
14767;BME280;7475;53.558;9.970;2023-05-23T05:12:03;101272.34;;;15.16;100.00
14767;BME280;7475;53.558;9.970;2023-05-23T05:14:28;101280.13;;;15.19;100.00
14767;BME280;7475;53.558;9.970;2023-05-23T05:16:54;101282.69;;;15.21;100.00
14767;BME280;7475;53.558;9.970;2023-05-23T05:19:21;101284.41;;;15.22;100.00
14767;BME280;7475;53.558;9.970;2023-05-23T05:21:47;101278.19;;;15.21;100.00
14767;BME280;7475;53.558;9.970;2023-05-23T05:24:12;101283.53;;;15.21;100.00
14767;BME280;7475;53.558;9.970;2023-05-23T05:26:37;101282.69;;;15.21;100.00
14767;BME280;7475;53.558;9.970;2023-05-23T05:29:03;101285.38;;;15.21;100.00
14767;BME280;7475;53.558;9.970;2023-05-23T05:31:28;101284.41;;;15.22;100.00
14767;BME280;7475;53.558;9.970;2023-05-23T05:33:54;101279.06;;;15.22;100.00
14767;BME280;7475;53.558;9.970;2023-05-23T05:36:19;101282.69;;;15.21;100.00
14767;BME280;7475;53.558;9.970;2023-05-23T05:38:45;101279.06;;;15.22;100.00
14767;BME280;7475;53.558;9.970;2023-05-23T05:41:11;101286.97;;;15.23;100.00
14767;BME280;7475;53.558;9.970;2023-05-23T05:43:36;101289.53;;;15.25;100.00
14767;BME280;7475;53.558;9.970;2023-05-23T05:46:01;101286.75;;;15.26;100.00
14767;BME280;7475;53.558;9.970;2023-05-23T05:48:27;101297.44;;;15.26;100.00
14767;BME280;7475;53.558;9.970;2023-05-23T05:50:52;101292.94;;;15.27;100.00
14767;BME280;7475;53.558;9.970;2023-05-23T05:53:17;101292.72;;;15.30;100.00
14767;BME280;7475;53.558;9.970;2023-05-23T05:55:42;101298.56;;;15.35;100.00
14767;BME280;7475;53.558;9.970;2023-05-23T05:58:08;101293.81;;;15.39;100.00
14767;BME280;7475;53.558;9.970;2023-05-23T06:00:33;101299.78;;;15.42;100.00
14767;BME280;7475;53.558;9.970;2023-05-23T06:03:06;101304.16;;;15.43;100.00
14767;BME280;7475;53.558;9.970;2023-05-23T06:05:31;101305.88;;;15.44;100.00
14767;BME280;7475;53.558;9.970;2023-05-23T06:07:56;101302.00;;;15.48;100.00
14767;BME280;7475;53.558;9.970;2023-05-23T06:10:22;101301.75;;;15.52;100.00
14767;BME280;7475;53.558;9.970;2023-05-23T06:12:48;101308.81;;;15.53;100.00
14767;BME280;7475;53.558;9.970;2023-05-23T06:15:14;101309.44;;;15.56;100.00
14767;BME280;7475;53.558;9.970;2023-05-23T06:17:40;101319.06;;;15.59;100.00
14767;BME280;7475;53.558;9.970;2023-05-23T06:20:06;101312.00;;;15.58;100.00
14767;BME280;7475;53.558;9.970;2023-05-23T06:22:32;101316.38;;;15.59;100.00
14767;BME280;7475;53.558;9.970;2023-05-23T06:24:57;101319.19;;;15.57;100.00
14767;BME280;7475;53.558;9.970;2023-05-23T06:27:22;101314.91;;;15.55;100.00
14767;BME280;7475;53.558;9.970;2023-05-23T06:29:48;101312.22;;;15.55;100.00
14767;BME280;7475;53.558;9.970;2023-05-23T06:32:13;101324.66;;;15.56;100.00
14767;BME280;7475;53.558;9.970;2023-05-23T06:34:39;101328.06;;;15.58;100.00
14767;BME280;7475;53.558;9.970;2023-05-23T06:37:04;101328.06;;;15.58;100.00
14767;BME280;7475;53.558;9.970;2023-05-23T06:39:29;101326.34;;;15.57;100.00
14767;BME280;7475;53.558;9.970;2023-05-23T06:41:55;101324.41;;;15.59;100.00
14767;BME280;7475;53.558;9.970;2023-05-23T06:44:20;101333.19;;;15.61;100.00
14767;BME280;7475;53.558;9.970;2023-05-23T06:46:45;101334.91;;;15.62;100.00
14767;BME280;7475;53.558;9.970;2023-05-23T06:49:11;101331.34;;;15.61;100.00
14767;BME280;7475;53.558;9.970;2023-05-23T06:51:37;101341.94;;;15.63;100.00
14767;BME280;7475;53.558;9.970;2023-05-23T06:54:02;101341.94;;;15.63;100.00
14767;BME280;7475;53.558;9.970;2023-05-23T06:56:28;101342.94;;;15.62;100.00
14767;BME280;7475;53.558;9.970;2023-05-23T06:58:53;101349.00;;;15.64;100.00
14767;BME280;7475;53.558;9.970;2023-05-23T07:01:18;101345.38;;;15.65;100.00
14767;BME280;7475;53.558;9.970;2023-05-23T07:03:44;101349.00;;;15.64;100.00
14767;BME280;7475;53.558;9.970;2023-05-23T07:06:10;101349.84;;;15.64;100.00
14767;BME280;7475;53.558;9.970;2023-05-23T07:08:36;101359.00;;;15.62;100.00
14767;BME280;7475;53.558;9.970;2023-05-23T07:11:02;101361.25;;;15.55;100.00
14767;BME280;7475;53.558;9.970;2023-05-23T07:13:27;101362.38;;;15.53;100.00
14767;BME280;7475;53.558;9.970;2023-05-23T07:15:52;101362.38;;;15.53;100.00
14767;BME280;7475;53.558;9.970;2023-05-23T07:18:18;101362.38;;;15.53;100.00
14767;BME280;7475;53.558;9.970;2023-05-23T07:20:44;101363.22;;;15.53;100.00
14767;BME280;7475;53.558;9.970;2023-05-23T07:23:09;101368.19;;;15.46;100.00
14767;BME280;7475;53.558;9.970;2023-05-23T07:25:34;101371.81;;;15.45;100.00
14767;BME280;7475;53.558;9.970;2023-05-23T07:28:00;101378.66;;;15.50;100.00
14767;BME280;7475;53.558;9.970;2023-05-23T07:30:25;101368.31;;;15.56;100.00
14767;BME280;7475;53.558;9.970;2023-05-23T07:32:50;101371.63;;;15.60;100.00
14767;BME280;7475;53.558;9.970;2023-05-23T07:35:19;101386.72;;;15.61;100.00
14767;BME280;7475;53.558;9.970;2023-05-23T07:37:50;101384.31;;;15.69;100.00
14767;BME280;7475;53.558;9.970;2023-05-23T07:40:16;101396.31;;;15.76;100.00
14767;BME280;7475;53.558;9.970;2023-05-23T07:42:41;101384.88;;;15.86;100.00
14767;BME280;7475;53.558;9.970;2023-05-23T07:45:07;101389.50;;;15.95;100.00
14767;BME280;7475;53.558;9.970;2023-05-23T07:47:32;101394.16;;;16.04;100.00
14767;BME280;7475;53.558;9.970;2023-05-23T07:49:57;101390.03;;;16.11;100.00
14767;BME280;7475;53.558;9.970;2023-05-23T07:52:23;101399.31;;;16.30;100.00
14767;BME280;7475;53.558;9.970;2023-05-23T07:54:48;101407.34;;;16.41;100.00
14767;BME280;7475;53.558;9.970;2023-05-23T07:57:13;101409.19;;;16.52;100.00
14767;BME280;7475;53.558;9.970;2023-05-23T07:59:40;101411.00;;;16.51;100.00
14767;BME280;7475;53.558;9.970;2023-05-23T08:02:06;101414.44;;;16.42;100.00
14767;BME280;7475;53.558;9.970;2023-05-23T08:04:31;101415.88;;;16.24;100.00
14767;BME280;7475;53.558;9.970;2023-05-23T08:06:58;101410.25;;;16.15;100.00
14767;BME280;7475;53.558;9.970;2023-05-23T08:09:24;101409.53;;;16.13;100.00
14767;BME280;7475;53.558;9.970;2023-05-23T08:11:49;101414.66;;;16.16;100.00
14767;BME280;7475;53.558;9.970;2023-05-23T08:14:15;101413.78;;;16.16;100.00
14767;BME280;7475;53.558;9.970;2023-05-23T08:16:40;101423.41;;;16.18;100.00
14767;BME280;7475;53.558;9.970;2023-05-23T08:19:05;101422.56;;;16.18;100.00
14767;BME280;7475;53.558;9.970;2023-05-23T08:21:31;101416.59;;;16.14;100.00
14767;BME280;7475;53.558;9.970;2023-05-23T08:23:57;101430.22;;;16.23;100.00
14767;BME280;7475;53.558;9.970;2023-05-23T08:26:22;101428.53;;;16.22;100.00
14767;BME280;7475;53.558;9.970;2023-05-23T08:28:48;101439.50;;;16.30;100.00
14767;BME280;7475;53.558;9.970;2023-05-23T08:31:13;101436.34;;;16.36;100.00
14767;BME280;7475;53.558;9.970;2023-05-23T08:33:38;101446.31;;;16.34;100.00
14767;BME280;7475;53.558;9.970;2023-05-23T08:36:04;101446.72;;;16.29;100.00
14767;BME280;7475;53.558;9.970;2023-05-23T08:38:29;101446.06;;;16.26;100.00
14767;BME280;7475;53.558;9.970;2023-05-23T08:40:59;101453.00;;;16.17;100.00
14767;BME280;7475;53.558;9.970;2023-05-23T08:43:25;101448.13;;;16.11;100.00
14767;BME280;7475;53.558;9.970;2023-05-23T08:45:50;101458.94;;;15.98;100.00
14767;BME280;7475;53.558;9.970;2023-05-23T08:48:18;101456.22;;;15.87;100.00
14767;BME280;7475;53.558;9.970;2023-05-23T08:50:45;101456.44;;;15.83;100.00
14767;BME280;7475;53.558;9.970;2023-05-23T08:53:16;101461.81;;;15.83;100.00
14767;BME280;7475;53.558;9.970;2023-05-23T08:55:46;101465.44;;;15.82;100.00
14767;BME280;7475;53.558;9.970;2023-05-23T08:58:13;101470.81;;;15.82;100.00
14767;BME280;7475;53.558;9.970;2023-05-23T09:00:39;101469.53;;;15.75;100.00
14767;BME280;7475;53.558;9.970;2023-05-23T09:03:07;101477.06;;;15.70;100.00
14767;BME280;7475;53.558;9.970;2023-05-23T09:05:33;101475.81;;;15.63;100.00
14767;BME280;7475;53.558;9.970;2023-05-23T09:07:58;101495.00;;;15.57;100.00
14767;BME280;7475;53.558;9.970;2023-05-23T09:10:23;101491.53;;;15.43;100.00
14767;BME280;7475;53.558;9.970;2023-05-23T09:12:49;101489.19;;;15.39;100.00
14767;BME280;7475;53.558;9.970;2023-05-23T09:15:15;101499.50;;;15.32;100.00
14767;BME280;7475;53.558;9.970;2023-05-23T09:17:41;101498.47;;;15.22;100.00
14767;BME280;7475;53.558;9.970;2023-05-23T09:20:12;101509.22;;;15.09;100.00
14767;BME280;7475;53.558;9.970;2023-05-23T09:22:38;101521.19;;;15.03;100.00
14767;BME280;7475;53.558;9.970;2023-05-23T09:25:05;101529.63;;;14.97;100.00
14767;BME280;7475;53.558;9.970;2023-05-23T09:27:30;101531.06;;;14.90;100.00
14767;BME280;7475;53.558;9.970;2023-05-23T09:29:56;101533.19;;;14.85;100.00
14767;BME280;7475;53.558;9.970;2023-05-23T09:32:21;101539.81;;;14.79;100.00
14767;BME280;7475;53.558;9.970;2023-05-23T09:34:57;101535.78;;;14.73;100.00
14767;BME280;7475;53.558;9.970;2023-05-23T09:37:37;101539.81;;;14.66;100.00
14767;BME280;7475;53.558;9.970;2023-05-23T09:40:12;101542.16;;;14.58;100.00
14767;BME280;7475;53.558;9.970;2023-05-23T09:42:42;101543.88;;;14.59;100.00
14767;BME280;7475;53.558;9.970;2023-05-23T09:45:09;101541.31;;;14.57;100.00
14767;BME280;7475;53.558;9.970;2023-05-23T09:47:34;101552.84;;;14.58;100.00
14767;BME280;7475;53.558;9.970;2023-05-23T09:50:00;101558.19;;;14.58;100.00
14767;BME280;7475;53.558;9.970;2023-05-23T09:52:25;101560.78;;;14.60;100.00
14767;BME280;7475;53.558;9.970;2023-05-23T09:54:51;101559.91;;;14.59;100.00
14767;BME280;7475;53.558;9.970;2023-05-23T09:57:18;101563.34;;;14.61;100.00
14767;BME280;7475;53.558;9.970;2023-05-23T09:59:51;101570.41;;;14.62;100.00
14767;BME280;7475;53.558;9.970;2023-05-23T10:02:34;101572.97;;;14.64;100.00
14767;BME280;7475;53.558;9.970;2023-05-23T10:05:09;101577.47;;;14.63;100.00
14767;BME280;7475;53.558;9.970;2023-05-23T10:07:39;101567.63;;;14.64;100.00
14767;BME280;7475;53.558;9.970;2023-05-23T10:10:06;101577.84;;;14.57;100.00
14767;BME280;7475;53.558;9.970;2023-05-23T10:12:49;101580.00;;;14.52;100.00
14767;BME280;7475;53.558;9.970;2023-05-23T10:15:17;101585.34;;;14.52;100.00
14767;BME280;7475;53.558;9.970;2023-05-23T10:21:02;101591.97;;;14.46;100.00
14767;BME280;7475;53.558;9.970;2023-05-23T10:23:30;101594.31;;;14.51;100.00
14767;BME280;7475;53.558;9.970;2023-05-23T10:25:56;101593.44;;;14.50;100.00
14767;BME280;7475;53.558;9.970;2023-05-23T10:28:21;101608.34;;;14.54;100.00
14767;BME280;7475;53.558;9.970;2023-05-23T10:30:48;101615.47;;;14.54;100.00
14767;BME280;7475;53.558;9.970;2023-05-23T10:33:15;101617.41;;;14.52;100.00
14767;BME280;7475;53.558;9.970;2023-05-23T10:35:52;101615.91;;;14.48;100.00
14767;BME280;7475;53.558;9.970;2023-05-23T10:43:56;101626.66;;;14.61;100.00
14767;BME280;7475;53.558;9.970;2023-05-23T10:46:49;101626.44;;;14.64;100.00
14767;BME280;7475;53.558;9.970;2023-05-23T10:49:15;101635.03;;;14.69;100.00
14767;BME280;7475;53.558;9.970;2023-05-23T10:51:41;101636.28;;;14.63;100.00
14767;BME280;7475;53.558;9.970;2023-05-23T10:54:10;101639.91;;;14.62;100.00
14767;BME280;7475;53.558;9.970;2023-05-23T10:56:36;101629.41;;;14.59;100.00
14767;BME280;7475;53.558;9.970;2023-05-23T10:59:04;101640.09;;;14.59;100.00
14767;BME280;7475;53.558;9.970;2023-05-23T11:01:30;101641.22;;;14.69;100.00
14767;BME280;7475;53.558;9.970;2023-05-23T11:03:56;101635.03;;;14.82;100.00
14767;BME280;7475;53.558;9.970;2023-05-23T11:06:28;101643.81;;;14.84;100.00
14767;BME280;7475;53.558;9.970;2023-05-23T11:09:22;101626.59;;;15.14;100.00
14767;BME280;7475;53.558;9.970;2023-05-23T11:12:02;101638.81;;;15.80;100.00
14767;BME280;7475;53.558;9.970;2023-05-23T11:14:50;101635.41;;;16.27;100.00
14767;BME280;7475;53.558;9.970;2023-05-23T11:17:23;101644.34;;;16.38;100.00
14767;BME280;7475;53.558;9.970;2023-05-23T11:20:08;101643.94;;;16.32;100.00
14767;BME280;7475;53.558;9.970;2023-05-23T11:22:37;101656.00;;;16.26;100.00
14767;BME280;7475;53.558;9.970;2023-05-23T11:25:07;101645.69;;;16.33;100.00
14767;BME280;7475;53.558;9.970;2023-05-23T11:27:38;101636.34;;;16.85;100.00
14767;BME280;7475;53.558;9.970;2023-05-23T11:30:12;101639.75;;;18.00;100.00
14767;BME280;7475;53.558;9.970;2023-05-23T11:32:39;101631.56;;;18.34;100.00
14767;BME280;7475;53.558;9.970;2023-05-23T11:35:06;101632.88;;;18.19;100.00
14767;BME280;7475;53.558;9.970;2023-05-23T11:37:32;101645.22;;;18.10;100.00
14767;BME280;7475;53.558;9.970;2023-05-23T11:39:58;101643.69;;;17.85;100.00
14767;BME280;7475;53.558;9.970;2023-05-23T11:42:23;101642.25;;;17.70;100.00
14767;BME280;7475;53.558;9.970;2023-05-23T11:44:52;101659.84;;;17.74;100.00
14767;BME280;7475;53.558;9.970;2023-05-23T11:47:18;101650.31;;;17.58;100.00
14767;BME280;7475;53.558;9.970;2023-05-23T11:49:45;101655.47;;;17.39;100.00
14767;BME280;7475;53.558;9.970;2023-05-23T11:52:13;101658.13;;;17.39;100.00
14767;BME280;7475;53.558;9.970;2023-05-23T11:54:40;101665.47;;;17.71;100.00
14767;BME280;7475;53.558;9.970;2023-05-23T11:57:06;101664.19;;;17.86;100.00
14767;BME280;7475;53.558;9.970;2023-05-23T11:59:32;101648.06;;;18.41;100.00
14767;BME280;7475;53.558;9.970;2023-05-23T12:01:58;101645.09;;;18.77;100.00
14767;BME280;7475;53.558;9.970;2023-05-23T12:04:24;101660.75;;;18.71;100.00
14767;BME280;7475;53.558;9.970;2023-05-23T12:06:50;101652.78;;;19.02;100.00
14767;BME280;7475;53.558;9.970;2023-05-23T12:09:16;101653.75;;;20.04;100.00
14767;BME280;7475;53.558;9.970;2023-05-23T12:11:43;101651.38;;;21.26;100.00
14767;BME280;7475;53.558;9.970;2023-05-23T12:14:13;101655.59;;;22.40;96.67
14767;BME280;7475;53.558;9.970;2023-05-23T12:16:39;101660.84;;;22.59;89.03
14767;BME280;7475;53.558;9.970;2023-05-23T12:19:07;101664.28;;;21.97;80.01
14767;BME280;7475;53.558;9.970;2023-05-23T12:26:50;101649.84;;;23.31;75.66
14767;BME280;7475;53.558;9.970;2023-05-23T12:29:18;101649.47;;;23.60;76.46
14767;BME280;7475;53.558;9.970;2023-05-23T12:31:43;101650.97;;;23.97;70.44
14767;BME280;7475;53.558;9.970;2023-05-23T12:34:10;101662.47;;;23.91;53.14
14767;BME280;7475;53.558;9.970;2023-05-23T12:36:35;101663.13;;;23.42;53.59
14767;BME280;7475;53.558;9.970;2023-05-23T12:39:04;101676.38;;;23.01;58.58
14767;BME280;7475;53.558;9.970;2023-05-23T12:41:31;101676.47;;;22.65;64.88
14767;BME280;7475;53.558;9.970;2023-05-23T12:43:57;101678.00;;;22.50;58.73
14767;BME280;7475;53.558;9.970;2023-05-23T12:46:24;101666.22;;;22.33;65.63
14767;BME280;7475;53.558;9.970;2023-05-23T12:48:50;101671.31;;;22.36;67.01
14767;BME280;7475;53.558;9.970;2023-05-23T12:51:17;101667.41;;;22.21;64.98
14767;BME280;7475;53.558;9.970;2023-05-23T12:53:43;101666.00;;;21.71;67.37
14767;BME280;7475;53.558;9.970;2023-05-23T12:56:08;101672.66;;;21.39;70.83
14767;BME280;7475;53.558;9.970;2023-05-23T12:58:34;101685.56;;;20.88;72.95
14767;BME280;7475;53.558;9.970;2023-05-23T13:01:00;101696.38;;;20.78;81.08
14767;BME280;7475;53.558;9.970;2023-05-23T13:03:27;101692.09;;;21.05;77.70
14767;BME280;7475;53.558;9.970;2023-05-23T13:05:52;101691.63;;;21.19;77.37